Time;durP1;ratioP1;P1;durP2;ratioP2;P2;SDS_P1;SDS_P2;PMS_P1;PMS_P2;Temp;Humidity;BMP_temperature;BMP_pressure;BME280_temperature;BME280_humidity;BME280_pressure;Samples;Min_cycle;Max_cycle;Signal;HPM_P1;HPM_P2
2023/09/16 00:02:29;;;;;;;;;;;;;;;14.42;99.88;100704.40;185736;1233;43541;-57
2023/09/16 00:06:31;;;;;;;;;;;;;;;14.40;99.96;100706.04;185644;1233;57834;-57
2023/09/16 00:10:34;;;;;;;;;;;;;;;14.38;100.00;100705.17;185760;1233;44485;-58
2023/09/16 00:14:36;;;;;;;;;;;;;;;14.40;100.00;100703.93;185774;1234;43700;-57
2023/09/16 00:19:05;;;;;;;;;;;;;;;14.36;100.00;100701.78;185858;1233;43206;-58
2023/09/16 00:23:16;;;;;;;;;;;;;;;14.26;100.00;100706.40;185902;1234;44330;-56
2023/09/16 00:27:33;;;;;;;;;;;;;;;14.25;100.00;100707.80;185851;1233;57612;-58
2023/09/16 00:31:36;;;;;;;;;;;;;;;14.27;100.00;100702.45;185926;1233;45647;-58
2023/09/16 00:35:38;;;;;;;;;;;;;;;14.27;100.00;100705.14;185792;1233;43528;-57
2023/09/16 00:39:41;;;;;;;;;;;;;;;14.23;100.00;100706.14;185795;1234;44294;-57
2023/09/16 00:43:43;;;;;;;;;;;;;;;14.18;100.00;100711.11;185841;1233;44961;-58
2023/09/16 00:47:45;;;;;;;;;;;;;;;14.13;100.00;100714.65;185625;1234;56995;-57
2023/09/16 00:51:57;;;;;;;;;;;;;;;14.11;100.00;100713.11;185571;1233;44165;-58
2023/09/16 00:55:59;;;;;;;;;;;;;;;14.00;100.00;100710.34;185679;1234;43296;-59
2023/09/16 01:00:01;;;;;;;;;;;;;;;13.91;100.00;100710.42;185682;1233;43303;-58
2023/09/16 01:04:07;;;;;;;;;;;;;;;13.98;100.00;100704.98;185675;1233;43534;-59
2023/09/16 01:08:13;;;;;;;;;;;;;;;14.06;100.00;100698.63;185860;1233;57858;-57
2023/09/16 01:12:15;;;;;;;;;;;;;;;14.07;100.00;100690.16;185808;1233;43275;-58
2023/09/16 01:16:32;;;;;;;;;;;;;;;14.12;100.00;100688.05;185835;1233;44594;-58
2023/09/16 01:20:34;;;;;;;;;;;;;;;14.20;100.00;100692.01;185763;1233;43510;-57
2023/09/16 01:24:35;;;;;;;;;;;;;;;14.22;100.00;100690.70;185876;1233;44277;-59
2023/09/16 01:28:41;;;;;;;;;;;;;;;14.25;100.00;100686.18;185757;1233;57908;-57
2023/09/16 01:32:44;;;;;;;;;;;;;;;14.33;100.00;100681.16;185783;1233;44475;-58
2023/09/16 01:36:49;;;;;;;;;;;;;;;14.37;100.00;100678.87;185840;1233;46234;-57
2023/09/16 01:45:52;;;;;;;;;;;;;;;14.42;100.00;100678.06;185820;1233;44410;-58
2023/09/16 01:49:55;;;;;;;;;;;;;;;14.43;100.00;100675.45;185778;1233;58206;-57
2023/09/16 01:53:57;;;;;;;;;;;;;;;14.41;100.00;100678.69;185529;1233;43465;-57
2023/09/16 01:57:59;;;;;;;;;;;;;;;14.36;100.00;100673.45;185695;1233;43221;-57
2023/09/16 02:02:01;;;;;;;;;;;;;;;14.30;100.00;100674.82;185511;1233;43705;-57
2023/09/16 02:06:06;;;;;;;;;;;;;;;14.25;100.00;100665.89;185766;1233;43212;-57
2023/09/16 02:10:09;;;;;;;;;;;;;;;14.24;100.00;100659.60;185571;1234;58169;-58
2023/09/16 02:14:15;;;;;;;;;;;;;;;14.21;100.00;100660.34;185838;1233;43355;-57
2023/09/16 02:18:20;;;;;;;;;;;;;;;14.18;100.00;100663.65;185706;1233;43535;-58
2023/09/16 02:22:22;;;;;;;;;;;;;;;14.13;100.00;100658.71;185462;1233;45833;-58
2023/09/16 02:26:24;;;;;;;;;;;;;;;14.08;100.00;100656.35;185488;1233;44660;-57
2023/09/16 02:30:38;;;;;;;;;;;;;;;14.04;100.00;100658.45;185435;1233;58375;-57
2023/09/16 02:34:43;;;;;;;;;;;;;;;14.00;100.00;100660.02;185702;1233;45736;-57
2023/09/16 02:38:44;;;;;;;;;;;;;;;13.96;100.00;100660.45;185475;1233;43562;-58
2023/09/16 02:42:46;;;;;;;;;;;;;;;13.93;100.00;100663.73;185568;1233;43531;-58
2023/09/16 02:46:48;;;;;;;;;;;;;;;13.91;100.00;100668.55;185670;1233;45727;-57
2023/09/16 02:50:50;;;;;;;;;;;;;;;13.91;100.00;100666.80;185642;1233;58225;-57
2023/09/16 02:54:54;;;;;;;;;;;;;;;13.87;100.00;100665.89;185679;1234;44294;-57
2023/09/16 02:58:58;;;;;;;;;;;;;;;13.80;100.00;100660.59;185791;1233;43446;-59
2023/09/16 03:03:00;;;;;;;;;;;;;;;13.74;100.00;100659.02;185522;1233;44443;-57
2023/09/16 03:07:02;;;;;;;;;;;;;;;13.71;100.00;100662.79;185686;1233;44277;-58
2023/09/16 03:11:15;;;;;;;;;;;;;;;13.71;100.00;100664.11;185751;1233;57975;-57
2023/09/16 03:15:17;;;;;;;;;;;;;;;13.69;100.00;100661.96;185759;1233;43342;-58
2023/09/16 03:19:19;;;;;;;;;;;;;;;13.68;100.00;100662.39;185689;1234;45678;-57
2023/09/16 03:23:28;;;;;;;;;;;;;;;13.66;100.00;100657.05;185482;1234;43303;-57
2023/09/16 03:27:31;;;;;;;;;;;;;;;13.53;100.00;100651.73;185770;1233;43468;-57
2023/09/16 03:31:32;;;;;;;;;;;;;;;13.53;100.00;100650.36;185628;1233;58262;-57
2023/09/16 03:35:37;;;;;;;;;;;;;;;13.56;100.00;100651.64;185665;1233;43644;-58
2023/09/16 03:39:39;;;;;;;;;;;;;;;13.57;100.00;100646.96;185819;1233;44498;-58
2023/09/16 03:43:41;;;;;;;;;;;;;;;13.58;100.00;100647.94;185728;1233;44302;-58
2023/09/16 03:47:44;;;;;;;;;;;;;;;13.60;100.00;100639.64;185658;1233;43329;-57
2023/09/16 03:51:46;;;;;;;;;;;;;;;13.55;100.00;100635.57;185592;1233;58973;-57
2023/09/16 03:55:48;;;;;;;;;;;;;;;13.52;100.00;100638.88;185661;1234;43440;-57
2023/09/16 03:59:50;;;;;;;;;;;;;;;13.44;100.00;100633.46;185560;1234;45765;-57
2023/09/16 04:03:54;;;;;;;;;;;;;;;13.41;100.00;100632.13;185581;1236;45792;-58
2023/09/16 04:07:57;;;;;;;;;;;;;;;13.36;100.00;100630.75;185507;1233;45606;-58
2023/09/16 04:11:59;;;;;;;;;;;;;;;13.31;100.00;100630.86;185544;1233;58188;-57
2023/09/16 04:16:01;;;;;;;;;;;;;;;13.28;100.00;100634.31;185328;1233;44690;-58
2023/09/16 04:20:06;;;;;;;;;;;;;;;13.28;100.00;100637.85;185696;1234;45810;-58
2023/09/16 04:24:36;;;;;;;;;;;;;;;13.27;100.00;100629.55;185638;1233;45138;-58
2023/09/16 04:28:41;;;;;;;;;;;;;;;13.30;100.00;100627.92;185699;1233;44379;-57
2023/09/16 04:32:43;;;;;;;;;;;;;;;13.31;100.00;100625.84;185707;1233;57715;-58
2023/09/16 04:36:45;;;;;;;;;;;;;;;13.35;100.00;100625.58;185752;1233;43303;-58
2023/09/16 04:40:49;;;;;;;;;;;;;;;13.40;100.00;100619.95;185714;1233;43284;-58
2023/09/16 04:44:52;;;;;;;;;;;;;;;13.44;100.00;100621.36;185531;1233;44140;-58
2023/09/16 04:49:04;;;;;;;;;;;;;;;13.43;100.00;100618.77;185631;1234;43231;-59
2023/09/16 04:53:12;;;;;;;;;;;;;;;13.46;100.00;100620.86;185562;1233;58650;-59
2023/09/16 04:57:14;;;;;;;;;;;;;;;13.86;100.00;100620.01;185648;1237;45051;-58
2023/09/16 05:01:16;;;;;;;;;;;;;;;14.33;100.00;100612.34;185776;1237;45034;-59
2023/09/16 05:10:14;;;;;;;;;;;;;;;15.26;100.00;100620.93;185825;1233;43262;-58
2023/09/16 05:14:16;;;;;;;;;;;;;;;15.62;100.00;100623.59;185554;1234;59014;-58
2023/09/16 05:18:19;;;;;;;;;;;;;;;15.90;99.79;100619.52;185763;1233;44612;-59
2023/09/16 05:22:21;;;;;;;;;;;;;;;16.08;98.55;100618.59;185797;1234;44225;-58
2023/09/16 05:26:23;;;;;;;;;;;;;;;16.33;97.34;100611.61;185759;1234;44496;-58
2023/09/16 05:30:25;;;;;;;;;;;;;;;16.65;96.06;100615.86;185630;1233;44422;-58
2023/09/16 05:34:27;;;;;;;;;;;;;;;16.98;94.42;100614.00;185886;1234;58392;-58
2023/09/16 05:38:29;;;;;;;;;;;;;;;17.29;92.31;100620.71;185456;1233;46592;-58
2023/09/16 05:42:36;;;;;;;;;;;;;;;17.59;91.57;100618.63;185556;1235;43324;-59
2023/09/16 05:46:38;;;;;;;;;;;;;;;17.87;89.83;100624.62;185570;1234;43495;-58
2023/09/16 05:50:40;;;;;;;;;;;;;;;18.09;88.63;100623.96;185410;1235;45019;-58
2023/09/16 05:54:42;;;;;;;;;;;;;;;18.24;87.29;100624.08;185648;1235;57277;-59
2023/09/16 05:58:47;;;;;;;;;;;;;;;18.35;87.04;100622.73;185647;1235;45702;-58
2023/09/16 06:02:49;;;;;;;;;;;;;;;18.41;87.38;100624.70;185589;1235;43320;-59
2023/09/16 06:06:57;;;;;;;;;;;;;;;18.46;86.38;100622.27;185676;1235;44355;-59
2023/09/16 06:10:59;;;;;;;;;;;;;;;18.51;86.87;100620.19;185655;1235;43294;-58
2023/09/16 06:15:01;;;;;;;;;;;;;;;18.49;87.06;100619.99;185700;1235;57171;-59
2023/09/16 06:19:04;;;;;;;;;;;;;;;18.44;87.34;100618.17;185677;1235;43361;-58
2023/09/16 06:23:06;;;;;;;;;;;;;;;18.32;87.68;100617.78;185496;1235;43501;-59
2023/09/16 06:27:12;;;;;;;;;;;;;;;18.27;88.78;100616.77;185370;1235;45064;-56
2023/09/16 06:31:16;;;;;;;;;;;;;;;18.21;90.27;100616.46;185615;1234;43318;-57
2023/09/16 06:35:22;;;;;;;;;;;;;;;18.11;91.87;100617.23;185365;1235;58109;-58
2023/09/16 06:39:25;;;;;;;;;;;;;;;17.83;93.26;100617.27;185567;1237;44522;-56
2023/09/16 06:43:27;;;;;;;;;;;;;;;17.80;94.43;100615.17;185633;1234;43266;-57
2023/09/16 06:47:29;;;;;;;;;;;;;;;17.96;93.78;100613.75;185561;1236;43684;-56
2023/09/16 06:51:41;;;;;;;;;;;;;;;18.05;92.30;100614.96;185524;1234;44232;-56
2023/09/16 06:55:46;;;;;;;;;;;;;;;18.16;92.15;100611.81;185559;1235;58469;-57
2023/09/16 06:59:50;;;;;;;;;;;;;;;18.24;91.73;100608.41;185376;1235;44404;-57
2023/09/16 07:03:52;;;;;;;;;;;;;;;18.32;92.17;100610.31;185244;1235;43348;-57
2023/09/16 07:07:54;;;;;;;;;;;;;;;18.43;91.21;100609.80;185735;1234;43342;-56
2023/09/16 07:12:24;;;;;;;;;;;;;;;18.48;90.48;100612.65;185374;1234;45753;-56
2023/09/16 07:16:40;;;;;;;;;;;;;;;18.45;92.44;100609.04;185550;1235;57135;-58
2023/09/16 07:20:43;;;;;;;;;;;;;;;18.50;92.21;100614.58;185393;1235;45027;-57
2023/09/16 07:24:46;;;;;;;;;;;;;;;18.57;92.25;100607.73;185602;1235;43486;-57
2023/09/16 07:28:49;;;;;;;;;;;;;;;18.57;91.33;100604.70;185474;1234;45687;-57
2023/09/16 07:32:51;;;;;;;;;;;;;;;18.44;92.42;100598.00;185452;1234;45813;-57
2023/09/16 07:36:56;;;;;;;;;;;;;;;18.35;92.13;100595.63;185432;1235;58262;-57
2023/09/16 07:40:59;;;;;;;;;;;;;;;18.34;93.08;100599.13;185451;1235;44239;-57
2023/09/16 07:45:03;;;;;;;;;;;;;;;18.57;94.51;100592.30;185800;1234;44209;-57
2023/09/16 07:49:05;;;;;;;;;;;;;;;18.78;93.67;100594.67;185682;1238;43276;-57
2023/09/16 07:53:08;;;;;;;;;;;;;;;18.84;91.64;100589.47;185667;1238;43358;-57
2023/09/16 07:57:09;;;;;;;;;;;;;;;18.94;91.71;100588.58;185611;1235;57087;-57
2023/09/16 08:01:11;;;;;;;;;;;;;;;19.06;91.24;100590.31;185343;1235;43488;-57
2023/09/16 08:05:13;;;;;;;;;;;;;;;19.20;92.71;100588.58;185396;1235;43245;-58
2023/09/16 08:09:24;;;;;;;;;;;;;;;19.45;91.89;100594.52;185704;1235;45539;-58
2023/09/16 08:13:26;;;;;;;;;;;;;;;19.71;90.01;100599.09;185481;1235;43204;-57
2023/09/16 08:17:28;;;;;;;;;;;;;;;19.92;89.74;100592.76;185667;1238;58259;-57
2023/09/16 08:21:33;;;;;;;;;;;;;;;20.07;88.62;100589.15;185659;1235;43576;-58
2023/09/16 08:25:35;;;;;;;;;;;;;;;20.20;90.45;100587.65;185712;1235;43726;-58
2023/09/16 08:29:37;;;;;;;;;;;;;;;20.36;88.34;100583.63;185696;1235;45891;-58
2023/09/16 08:33:39;;;;;;;;;;;;;;;20.35;89.84;100583.44;185592;1235;45100;-58
2023/09/16 08:37:41;;;;;;;;;;;;;;;20.59;87.85;100583.11;185624;1234;57777;-58
2023/09/16 08:41:52;;;;;;;;;;;;;;;20.82;87.16;100583.13;185401;1235;43490;-58
2023/09/16 08:46:01;;;;;;;;;;;;;;;20.96;86.61;100583.23;185523;1235;43511;-59
2023/09/16 08:50:06;;;;;;;;;;;;;;;21.06;85.62;100579.43;185430;1238;45800;-57
2023/09/16 08:54:12;;;;;;;;;;;;;;;21.12;84.55;100574.76;185436;1238;45548;-57
2023/09/16 08:58:14;;;;;;;;;;;;;;;21.20;84.60;100575.27;185592;1235;58248;-57
2023/09/16 09:02:18;;;;;;;;;;;;;;;21.27;84.37;100567.55;185479;1235;44421;-57
2023/09/16 09:06:23;;;;;;;;;;;;;;;21.42;86.95;100558.17;185787;1236;43208;-58
2023/09/16 09:10:41;;;;;;;;;;;;;;;21.47;84.12;100553.86;185706;1234;45850;-57
2023/09/16 09:14:47;;;;;;;;;;;;;;;21.47;84.91;100546.83;185346;1235;43365;-57
2023/09/16 09:18:55;;;;;;;;;;;;;;;21.47;83.80;100542.52;185659;1235;58586;-57
2023/09/16 09:22:58;;;;;;;;;;;;;;;21.48;85.00;100544.96;185454;1235;216940;-57
2023/09/16 09:27:01;;;;;;;;;;;;;;;21.50;83.75;100546.52;185645;1235;43564;-57
2023/09/16 09:31:04;;;;;;;;;;;;;;;21.62;84.06;100550.94;185629;1235;45308;-58
2023/09/16 09:35:11;;;;;;;;;;;;;;;21.77;84.26;100547.40;185620;1238;43971;-57
2023/09/16 09:39:15;;;;;;;;;;;;;;;22.01;85.48;100544.13;185653;1234;58113;-58
2023/09/16 09:43:22;;;;;;;;;;;;;;;22.17;83.16;100545.45;185278;1235;43470;-58
2023/09/16 09:47:24;;;;;;;;;;;;;;;22.25;82.99;100540.94;185396;1235;43989;-57
2023/09/16 09:51:28;;;;;;;;;;;;;;;22.29;82.57;100535.55;185600;1235;43345;-57
2023/09/16 09:55:50;;;;;;;;;;;;;;;22.44;82.96;100537.54;185520;1236;43570;-57
2023/09/16 09:59:53;;;;;;;;;;;;;;;22.55;81.64;100533.36;185374;1235;57908;-58
2023/09/16 10:03:55;;;;;;;;;;;;;;;22.67;82.68;100530.17;185339;1236;45797;-57
2023/09/16 10:07:57;;;;;;;;;;;;;;;22.79;82.08;100522.95;185525;1235;45668;-57
2023/09/16 10:12:00;;;;;;;;;;;;;;;22.93;81.94;100518.58;185583;1235;43314;-58
2023/09/16 10:16:05;;;;;;;;;;;;;;;22.98;81.22;100512.59;185272;1236;45861;-58
2023/09/16 10:20:11;;;;;;;;;;;;;;;23.05;80.78;100505.95;185223;1234;59115;-58
2023/09/16 10:24:13;;;;;;;;;;;;;;;23.16;79.83;100500.72;185703;1235;43624;-58
2023/09/16 10:28:16;;;;;;;;;;;;;;;23.35;80.55;100496.80;185391;1235;44823;-57
2023/09/16 10:32:18;;;;;;;;;;;;;;;23.51;79.93;100491.27;185694;1236;43628;-58
2023/09/16 10:36:48;;;;;;;;;;;;;;;23.60;78.50;100489.31;185637;1235;45828;-57
2023/09/16 10:40:54;;;;;;;;;;;;;;;23.73;79.11;100486.23;185558;1236;58299;-58
2023/09/16 10:44:57;;;;;;;;;;;;;;;23.93;77.12;100475.63;185639;1235;44409;-58
2023/09/16 10:49:00;;;;;;;;;;;;;;;24.11;77.55;100472.71;185664;1235;43184;-58
2023/09/16 10:53:02;;;;;;;;;;;;;;;24.33;77.44;100469.54;185510;1235;45815;-58
2023/09/16 10:57:07;;;;;;;;;;;;;;;24.43;74.48;100472.98;185730;1234;45666;-59
2023/09/16 11:01:13;;;;;;;;;;;;;;;24.49;74.74;100472.04;185430;1237;58595;-58
2023/09/16 11:05:33;;;;;;;;;;;;;;;24.54;75.16;100465.67;185718;1236;43568;-59
2023/09/16 11:09:37;;;;;;;;;;;;;;;24.71;76.33;100465.31;185902;1235;43184;-59
2023/09/16 11:13:39;;;;;;;;;;;;;;;24.82;73.76;100463.66;185765;1234;45757;-58
2023/09/16 11:17:41;;;;;;;;;;;;;;;24.94;74.25;100454.98;185696;1235;43301;-59
2023/09/16 11:21:44;;;;;;;;;;;;;;;24.96;74.03;100451.08;185701;1236;58414;-58
2023/09/16 11:25:47;;;;;;;;;;;;;;;25.05;74.70;100441.95;185634;1235;44245;-57
2023/09/16 11:29:52;;;;;;;;;;;;;;;25.14;74.13;100441.30;185928;1235;43272;-57
2023/09/16 11:33:58;;;;;;;;;;;;;;;25.30;74.66;100430.27;185735;1236;44842;-58
2023/09/16 11:38:00;;;;;;;;;;;;;;;25.31;72.86;100425.36;185849;1235;44411;-59
2023/09/16 11:42:07;;;;;;;;;;;;;;;25.30;71.79;100423.95;185750;1235;58430;-58
2023/09/16 11:46:14;;;;;;;;;;;;;;;25.36;71.52;100419.42;185809;1235;43477;-58
2023/09/16 11:50:23;;;;;;;;;;;;;;;25.42;72.75;100420.00;185572;1236;44150;-57
2023/09/16 11:54:24;;;;;;;;;;;;;;;25.53;72.43;100411.90;185531;1235;45710;-58
2023/09/16 11:58:28;;;;;;;;;;;;;;;25.56;71.54;100401.45;185732;1235;44200;-58
2023/09/16 12:02:30;;;;;;;;;;;;;;;25.59;71.28;100395.57;185693;1235;58015;-58
2023/09/16 12:06:34;;;;;;;;;;;;;;;25.62;70.51;100392.30;185572;1235;45733;-58
2023/09/16 12:10:39;;;;;;;;;;;;;;;25.79;71.41;100387.38;185690;1235;45746;-59
2023/09/16 12:14:42;;;;;;;;;;;;;;;25.95;71.15;100389.80;185820;1235;43375;-58
2023/09/16 12:18:56;;;;;;;;;;;;;;;26.05;70.07;100385.44;185764;1235;45653;-58
2023/09/16 12:22:58;;;;;;;;;;;;;;;26.08;69.52;100385.10;185768;1237;57162;-58
2023/09/16 12:27:17;;;;;;;;;;;;;;;26.11;69.83;100385.80;185745;1235;43479;-58
2023/09/16 12:31:21;;;;;;;;;;;;;;;26.10;68.79;100387.59;185507;1238;43294;-58
2023/09/16 12:35:24;;;;;;;;;;;;;;;26.21;70.13;100388.50;185507;1235;44950;-57
2023/09/16 12:39:26;;;;;;;;;;;;;;;26.35;69.06;100386.03;185289;1239;45816;-59
2023/09/16 12:43:30;;;;;;;;;;;;;;;26.42;69.01;100378.14;185436;1234;60115;-58
2023/09/16 12:47:34;;;;;;;;;;;;;;;26.44;68.59;100366.91;185674;1235;45627;-60
2023/09/16 12:51:37;;;;;;;;;;;;;;;26.41;67.10;100368.39;185678;1235;43799;-59
2023/09/16 12:55:39;;;;;;;;;;;;;;;26.50;68.77;100359.09;185630;1235;44624;-58
2023/09/16 12:59:45;;;;;;;;;;;;;;;26.55;68.52;100352.52;185516;1239;43677;-58
2023/09/16 13:03:47;;;;;;;;;;;;;;;26.54;66.82;100355.00;185794;1235;59144;-59
2023/09/16 13:07:54;;;;;;;;;;;;;;;26.57;66.63;100349.43;185716;1235;43589;-58
2023/09/16 13:11:59;;;;;;;;;;;;;;;26.57;66.27;100350.85;185788;1234;43760;-59
2023/09/16 13:16:10;;;;;;;;;;;;;;;26.57;65.91;100347.29;185631;1238;43479;-59
2023/09/16 13:20:13;;;;;;;;;;;;;;;26.60;67.15;100346.02;185697;1235;43317;-58
2023/09/16 13:24:18;;;;;;;;;;;;;;;26.71;67.45;100343.52;185389;1235;58177;-57
2023/09/16 13:28:33;;;;;;;;;;;;;;;26.69;65.18;100337.66;185411;1235;43509;-58
2023/09/16 13:32:54;;;;;;;;;;;;;;;26.64;64.81;100335.00;185725;1235;44146;-58
2023/09/16 13:36:57;;;;;;;;;;;;;;;26.63;64.63;100329.66;185578;1235;45717;-59
2023/09/16 13:41:00;;;;;;;;;;;;;;;26.62;64.73;100329.42;185766;1235;44248;-59
2023/09/16 13:45:02;;;;;;;;;;;;;;;26.62;64.77;100325.55;185631;1235;57048;-59
2023/09/16 13:49:05;;;;;;;;;;;;;;;26.56;65.09;100323.54;185798;1235;44995;-58
2023/09/16 13:53:17;;;;;;;;;;;;;;;26.57;65.41;100314.02;185738;1234;45773;-59
2023/09/16 14:08:39;;;;;;;;;;;;;;;26.72;66.23;100306.33;181171;1260;579220;-57
2023/09/16 14:12:41;;;;;;;;;;;;;;;26.67;65.85;100301.89;185785;1235;58328;-57
2023/09/16 14:16:43;;;;;;;;;;;;;;;26.69;66.23;100297.79;185923;1234;44470;-57
2023/09/16 14:20:46;;;;;;;;;;;;;;;26.68;67.31;100291.06;185895;1237;44793;-57
2023/09/16 14:24:48;;;;;;;;;;;;;;;26.69;67.38;100280.89;186005;1233;43475;-57
2023/09/16 14:29:05;;;;;;;;;;;;;;;26.72;66.91;100278.34;186013;1234;45099;-57
2023/09/16 14:33:07;;;;;;;;;;;;;;;26.73;66.78;100275.80;185843;1233;58740;-58
2023/09/16 14:37:09;;;;;;;;;;;;;;;26.72;66.66;100278.16;185611;1234;43418;-58
2023/09/16 14:41:11;;;;;;;;;;;;;;;26.63;66.65;100278.62;185966;1233;43869;-58
2023/09/16 14:45:13;;;;;;;;;;;;;;;26.69;67.27;100278.25;185606;1237;43249;-58
2023/09/16 14:49:19;;;;;;;;;;;;;;;26.70;67.20;100277.42;185892;1235;43214;-57
2023/09/16 14:53:21;;;;;;;;;;;;;;;26.70;66.60;100277.42;185975;1235;58291;-57
2023/09/16 14:57:23;;;;;;;;;;;;;;;26.69;67.25;100277.27;185642;1233;43508;-57
2023/09/16 15:01:25;;;;;;;;;;;;;;;26.72;67.41;100269.77;185847;1233;43490;-57
2023/09/16 15:05:27;;;;;;;;;;;;;;;26.69;67.41;100263.75;185747;1234;43548;-57
2023/09/16 15:09:31;;;;;;;;;;;;;;;26.68;66.68;100264.98;185660;1233;44971;-57
2023/09/16 15:13:33;;;;;;;;;;;;;;;26.62;67.15;100263.20;185943;1235;58405;-57
2023/09/16 15:17:34;;;;;;;;;;;;;;;26.55;67.70;100258.02;185630;1233;45676;-58
2023/09/16 15:21:37;;;;;;;;;;;;;;;26.51;67.99;100255.44;185578;1237;44339;-57
2023/09/16 15:25:38;;;;;;;;;;;;;;;26.50;68.93;100253.89;185790;1236;43511;-57
2023/09/16 15:29:41;;;;;;;;;;;;;;;26.46;68.14;100250.94;185948;1234;44445;-57
2023/09/16 15:33:45;;;;;;;;;;;;;;;26.39;68.67;100252.89;185912;1233;57515;-57
2023/09/16 15:37:47;;;;;;;;;;;;;;;26.32;68.64;100249.84;185510;1233;44550;-58
2023/09/16 15:41:49;;;;;;;;;;;;;;;26.29;69.41;100249.16;185533;1233;45557;-58
2023/09/16 15:45:56;;;;;;;;;;;;;;;26.21;69.83;100253.84;185879;1233;43206;-57
2023/09/16 15:50:00;;;;;;;;;;;;;;;26.16;70.29;100250.58;185825;1233;43201;-58
2023/09/16 15:54:03;;;;;;;;;;;;;;;26.12;71.11;100250.48;185691;1233;58054;-58
2023/09/16 15:58:05;;;;;;;;;;;;;;;26.07;71.25;100249.39;185920;1233;44602;-58
2023/09/16 16:02:08;;;;;;;;;;;;;;;25.99;71.98;100249.66;185834;1233;45766;-57
2023/09/16 16:06:10;;;;;;;;;;;;;;;25.86;72.58;100246.85;185884;1233;43315;-58
2023/09/16 16:10:15;;;;;;;;;;;;;;;25.72;73.46;100244.53;185677;1233;43929;-59
2023/09/16 16:19:04;;;;;;;;;;;;;;;25.47;75.14;100233.79;185858;1233;43266;-57
2023/09/16 16:23:08;;;;;;;;;;;;;;;25.37;75.92;100235.02;185753;1233;43355;-57
2023/09/16 16:27:10;;;;;;;;;;;;;;;25.22;76.42;100233.56;185724;1233;46446;-58
2023/09/16 16:31:14;;;;;;;;;;;;;;;25.10;76.67;100234.02;185912;1233;45653;-58
2023/09/16 16:35:18;;;;;;;;;;;;;;;24.97;77.45;100237.56;185871;1233;58012;-58
2023/09/16 16:39:20;;;;;;;;;;;;;;;24.82;78.36;100235.38;185969;1233;43610;-57
2023/09/16 16:43:24;;;;;;;;;;;;;;;24.62;79.04;100236.49;185780;1233;43457;-57
2023/09/16 16:47:26;;;;;;;;;;;;;;;24.49;79.63;100238.61;185315;1233;43932;-57
2023/09/16 16:51:30;;;;;;;;;;;;;;;24.33;80.39;100238.07;185518;1233;43582;-58
2023/09/16 16:55:34;;;;;;;;;;;;;;;24.17;80.70;100234.52;185601;1233;58247;-58
2023/09/16 16:59:44;;;;;;;;;;;;;;;23.98;81.42;100242.84;185630;1235;45705;-58
2023/09/16 17:03:46;;;;;;;;;;;;;;;23.81;82.30;100244.90;185657;1233;45642;-59
2023/09/16 17:08:07;;;;;;;;;;;;;;;23.66;83.07;100247.50;185962;1233;43608;-57
2023/09/16 17:12:09;;;;;;;;;;;;;;;23.56;83.85;100251.45;185957;1233;43193;-58
2023/09/16 17:16:13;;;;;;;;;;;;;;;23.43;84.63;100247.43;185948;1233;57566;-57
2023/09/16 17:20:16;;;;;;;;;;;;;;;23.30;85.32;100255.27;185790;1233;45748;-59
2023/09/16 17:24:22;;;;;;;;;;;;;;;23.15;85.86;100256.34;186004;1233;43764;-57
2023/09/16 17:28:25;;;;;;;;;;;;;;;23.00;86.35;100259.23;186030;1233;43496;-59
2023/09/16 17:32:27;;;;;;;;;;;;;;;22.89;86.56;100267.31;185971;1233;43529;-57
2023/09/16 17:36:29;;;;;;;;;;;;;;;22.83;86.63;100268.58;185974;1235;56888;-58
2023/09/16 17:40:40;;;;;;;;;;;;;;;22.75;86.96;100270.68;185650;1233;43577;-57
2023/09/16 17:44:43;;;;;;;;;;;;;;;22.66;87.12;100274.05;185682;1233;44236;-58
2023/09/16 17:48:45;;;;;;;;;;;;;;;22.59;87.38;100276.05;185854;1233;44009;-58
2023/09/16 17:52:48;;;;;;;;;;;;;;;22.48;87.81;100281.89;185910;1233;44735;-58
2023/09/16 17:56:50;;;;;;;;;;;;;;;22.44;87.55;100279.83;185895;1233;57086;-57
2023/09/16 18:00:52;;;;;;;;;;;;;;;22.37;87.60;100280.87;185974;1233;43649;-58
2023/09/16 18:04:54;;;;;;;;;;;;;;;22.37;87.46;100287.63;185750;1233;44285;-57
2023/09/16 18:08:57;;;;;;;;;;;;;;;22.26;88.38;100293.02;185995;1233;43481;-58
2023/09/16 18:18:16;;;;;;;;;;;;;;;21.87;91.26;100300.09;185806;1233;58280;-58
2023/09/16 18:22:22;;;;;;;;;;;;;;;21.70;92.38;100305.95;185663;1233;44702;-58
2023/09/16 18:26:24;;;;;;;;;;;;;;;21.50;93.70;100308.14;185689;1233;43664;-58
2023/09/16 18:30:26;;;;;;;;;;;;;;;21.42;94.01;100306.11;185934;1233;43231;-57
2023/09/16 18:34:28;;;;;;;;;;;;;;;21.29;94.59;100309.07;185625;1233;44442;-57
2023/09/16 18:38:31;;;;;;;;;;;;;;;21.25;95.02;100309.15;185879;1233;58420;-58
2023/09/16 18:42:39;;;;;;;;;;;;;;;21.13;95.86;100306.19;185834;1233;43644;-59
2023/09/16 18:46:41;;;;;;;;;;;;;;;21.00;96.51;100308.70;185659;1233;44503;-58
2023/09/16 18:50:46;;;;;;;;;;;;;;;20.94;96.65;100304.06;185785;1233;45704;-58
2023/09/16 18:54:48;;;;;;;;;;;;;;;20.89;97.02;100305.77;185871;1233;43452;-57
2023/09/16 18:58:50;;;;;;;;;;;;;;;20.78;98.00;100305.93;185905;1233;58200;-57
2023/09/16 19:02:55;;;;;;;;;;;;;;;20.64;98.90;100307.53;185823;1233;44889;-57
2023/09/16 19:07:06;;;;;;;;;;;;;;;20.48;99.90;100301.83;185754;1233;45815;-58
2023/09/16 19:11:08;;;;;;;;;;;;;;;20.38;100.00;100302.96;185625;1236;43360;-58
2023/09/16 19:15:10;;;;;;;;;;;;;;;20.31;100.00;100305.71;185830;1233;45628;-57
2023/09/16 19:19:12;;;;;;;;;;;;;;;20.24;100.00;100300.80;185866;1233;58382;-57
2023/09/16 19:23:15;;;;;;;;;;;;;;;20.19;100.00;100305.99;185619;1233;43774;-57
2023/09/16 19:27:17;;;;;;;;;;;;;;;20.15;100.00;100310.30;185815;1233;44192;-58
2023/09/16 19:31:20;;;;;;;;;;;;;;;20.23;100.00;100307.23;185862;1233;43555;-58
2023/09/16 19:35:23;;;;;;;;;;;;;;;20.25;100.00;100310.34;185878;1233;43235;-57
2023/09/16 19:39:27;;;;;;;;;;;;;;;20.13;100.00;100314.52;185796;1233;58027;-57
2023/09/16 19:43:59;;;;;;;;;;;;;;;20.04;100.00;100316.01;185753;1233;43540;-58
2023/09/16 19:48:02;;;;;;;;;;;;;;;19.96;100.00;100316.27;185786;1233;44237;-57
2023/09/16 19:52:08;;;;;;;;;;;;;;;19.86;100.00;100317.39;185653;1233;45576;-57
2023/09/16 19:56:10;;;;;;;;;;;;;;;19.85;100.00;100322.61;185788;1233;43745;-57
2023/09/16 20:00:12;;;;;;;;;;;;;;;19.81;100.00;100319.94;185667;1233;57897;-58
2023/09/16 20:04:14;;;;;;;;;;;;;;;19.77;100.00;100318.82;185797;1233;43463;-57
2023/09/16 20:08:16;;;;;;;;;;;;;;;19.61;100.00;100316.35;185734;1237;45680;-56
2023/09/16 20:12:20;;;;;;;;;;;;;;;19.56;100.00;100310.55;185533;1233;43768;-58
2023/09/16 20:16:25;;;;;;;;;;;;;;;19.44;100.00;100310.45;185686;1233;43509;-58
2023/09/16 20:20:27;;;;;;;;;;;;;;;19.44;100.00;100314.13;185743;1233;59808;-58
2023/09/16 20:24:33;;;;;;;;;;;;;;;19.33;100.00;100316.02;185829;1233;44357;-57
2023/09/16 20:28:35;;;;;;;;;;;;;;;19.23;100.00;100312.94;185793;1236;43570;-57
2023/09/16 20:32:50;;;;;;;;;;;;;;;19.11;100.00;100312.78;185354;1233;43359;-58
2023/09/16 20:36:52;;;;;;;;;;;;;;;19.03;100.00;100307.98;185715;1233;43256;-57
2023/09/16 20:40:54;;;;;;;;;;;;;;;18.88;100.00;100304.60;185598;1233;58103;-57
2023/09/16 20:44:57;;;;;;;;;;;;;;;18.79;100.00;100304.40;185451;1233;44689;-56
2023/09/16 20:48:58;;;;;;;;;;;;;;;18.65;100.00;100299.85;185575;1233;44386;-58
2023/09/16 20:57:53;;;;;;;;;;;;;;;18.55;100.00;100304.48;185694;1233;43458;-57
2023/09/16 21:01:55;;;;;;;;;;;;;;;18.61;100.00;100304.67;185749;1233;58197;-58
2023/09/16 21:05:58;;;;;;;;;;;;;;;18.69;100.00;100303.36;185710;1233;43518;-57
2023/09/16 21:10:02;;;;;;;;;;;;;;;18.74;100.00;100305.84;185649;1233;43398;-57